createdAt,value
2022-11-17T00:01:19.455Z,26.58
2022-11-17T00:03:50.439Z,22.85
2022-11-17T00:06:20.396Z,24.58
2022-11-17T00:08:47.935Z,22.20
2022-11-17T00:11:15.295Z,20.27
2022-11-17T00:14:02.752Z,20.20
2022-11-17T00:16:29.907Z,25.52
2022-11-17T00:19:15.928Z,24.08
2022-11-17T00:21:43.095Z,20.48
2022-11-17T00:24:10.230Z,23.48
2022-11-17T00:26:57.624Z,21.80
2022-11-17T00:29:24.822Z,24.05
2022-11-17T00:32:10.626Z,21.17
2022-11-17T00:34:37.898Z,21.70
2022-11-17T00:37:05.860Z,22.10
2022-11-17T00:39:33.590Z,21.38
2022-11-17T00:42:00.790Z,20.92
2022-11-17T00:44:28.168Z,22.90
2022-11-17T00:46:55.363Z,20.73
2022-11-17T00:49:25.184Z,21.02
2022-11-17T00:51:52.849Z,27.48
2022-11-17T00:54:20.049Z,22.02
2022-11-17T00:56:47.714Z,20.92
2022-11-17T00:59:15.293Z,21.05
2022-11-17T01:01:42.986Z,22.73
2022-11-17T01:04:12.728Z,19.35
2022-11-17T01:06:41.728Z,20.88
2022-11-17T01:09:12.044Z,22.25
2022-11-17T01:11:39.571Z,21.42
2022-11-17T01:14:07.140Z,19.58
2022-11-17T01:16:34.524Z,21.60
2022-11-17T01:19:02.530Z,21.40
2022-11-17T01:21:30.538Z,23.60
2022-11-17T01:23:58.560Z,23.83
2022-11-17T01:26:30.571Z,22.48
2022-11-17T01:28:58.164Z,25.25
2022-11-17T01:31:26.681Z,24.42
2022-11-17T01:33:53.908Z,20.27
2022-11-17T01:36:25.078Z,22.13
2022-11-17T01:38:52.572Z,22.02
2022-11-17T01:41:20.961Z,20.17
2022-11-17T01:43:48.171Z,19.40
2022-11-17T01:46:24.215Z,24.95
2022-11-17T01:48:51.971Z,22.13
2022-11-17T01:51:19.480Z,25.77
2022-11-17T01:53:47.906Z,20.67
2022-11-17T01:56:18.833Z,22.85
2022-11-17T01:58:52.176Z,23.88
2022-11-17T02:01:19.428Z,22.55
2022-11-17T02:03:48.749Z,20.90
2022-11-17T02:06:33.805Z,18.70
2022-11-17T02:09:01.849Z,18.20
2022-11-17T02:11:36.024Z,21.08
2022-11-17T02:14:05.177Z,16.40
2022-11-17T02:16:32.401Z,18.45
2022-11-17T02:18:59.571Z,19.10
2022-11-17T02:21:29.530Z,16.92
2022-11-17T02:24:02.694Z,18.60
2022-11-17T02:26:29.855Z,19.00
2022-11-17T02:28:56.996Z,18.63
2022-11-17T02:31:34.140Z,17.60
2022-11-17T02:34:21.672Z,17.60
2022-11-17T02:37:01.377Z,17.38
2022-11-17T02:39:48.825Z,14.43
2022-11-17T02:42:42.127Z,17.13
2022-11-17T02:45:10.399Z,15.60
2022-11-17T02:47:39.297Z,15.23
2022-11-17T02:50:08.120Z,16.77
2022-11-17T02:52:35.418Z,15.60
2022-11-17T02:55:03.468Z,15.30
2022-11-17T02:57:34.787Z,18.77
2022-11-17T03:00:08.493Z,17.85
2022-11-17T03:02:35.686Z,19.58
2022-11-17T03:05:20.865Z,19.70
2022-11-17T03:07:47.999Z,16.40
2022-11-17T03:10:22.972Z,18.38
2022-11-17T03:12:53.159Z,17.95
2022-11-17T03:15:20.332Z,16.38
2022-11-17T03:17:47.482Z,17.27
2022-11-17T03:20:17.415Z,19.77
2022-11-17T03:22:50.871Z,20.00
2022-11-17T03:25:19.784Z,16.75
2022-11-17T03:27:49.133Z,19.35
2022-11-17T03:30:16.883Z,20.65
2022-11-17T03:32:47.409Z,18.90
2022-11-17T03:35:16.897Z,17.38
2022-11-17T03:37:46.843Z,16.05
2022-11-17T03:40:15.627Z,20.25
2022-11-17T03:42:45.532Z,19.70
2022-11-17T03:45:18.294Z,18.73
2022-11-17T03:47:46.126Z,19.85
2022-11-17T03:50:16.047Z,15.63
2022-11-17T03:52:43.634Z,17.83
2022-11-17T03:55:11.207Z,17.52
2022-11-17T03:57:46.898Z,17.88
2022-11-17T04:00:15.594Z,18.67
2022-11-17T04:02:47.121Z,18.63
2022-11-17T04:05:15.745Z,21.83
2022-11-17T04:07:44.340Z,17.85
2022-11-17T04:10:12.821Z,18.10
2022-11-17T04:12:58.653Z,18.02
2022-11-17T04:15:44.842Z,18.50
2022-11-17T04:18:12.108Z,21.20
2022-11-17T04:20:39.300Z,20.23
2022-11-17T04:23:07.718Z,19.75
2022-11-17T04:25:56.738Z,19.77
2022-11-17T04:28:36.874Z,23.25
2022-11-17T04:31:10.248Z,25.20
2022-11-17T04:33:38.624Z,22.05
2022-11-17T04:36:06.156Z,23.38
2022-11-17T04:38:33.676Z,23.58
2022-11-17T04:41:24.139Z,22.90
2022-11-17T04:43:51.555Z,27.13
2022-11-17T04:46:19.420Z,24.38
2022-11-17T04:48:47.602Z,24.02
2022-11-17T04:51:15.523Z,23.15
2022-11-17T04:53:43.141Z,23.95
2022-11-17T04:56:10.674Z,25.08
2022-11-17T04:58:37.871Z,22.70
2022-11-17T05:01:14.522Z,24.58
2022-11-17T05:03:54.999Z,23.92
2022-11-17T05:06:54.788Z,22.52
2022-11-17T05:09:21.936Z,23.58
2022-11-17T05:12:07.729Z,23.00
2022-11-17T05:14:34.861Z,22.45
2022-11-17T05:17:11.917Z,21.77
2022-11-17T05:19:39.293Z,20.88
2022-11-17T05:22:26.168Z,20.20
2022-11-17T05:24:53.570Z,21.75
2022-11-17T05:27:21.458Z,22.05
2022-11-17T05:29:48.632Z,24.45
2022-11-17T05:32:15.917Z,20.27
2022-11-17T05:34:43.145Z,18.45
2022-11-17T05:37:10.459Z,19.90
2022-11-17T05:39:37.951Z,21.45
2022-11-17T05:42:05.372Z,21.17
2022-11-17T05:44:32.544Z,21.23
2022-11-17T05:46:59.984Z,19.75
2022-11-17T05:49:27.156Z,22.15
2022-11-17T05:51:54.388Z,23.73
2022-11-17T05:54:21.592Z,22.23
2022-11-17T05:57:01.033Z,23.02
2022-11-17T05:59:30.324Z,24.05
2022-11-17T06:02:00.588Z,19.42
2022-11-17T06:04:28.098Z,20.20
2022-11-17T06:06:59.431Z,17.90
2022-11-17T06:09:28.219Z,20.00
2022-11-17T06:11:56.819Z,26.02
2022-11-17T06:14:25.779Z,26.88
2022-11-17T06:16:56.350Z,19.95
2022-11-17T06:19:26.877Z,21.30
2022-11-17T06:22:11.639Z,22.83
2022-11-17T06:24:40.024Z,23.10
2022-11-17T06:27:07.286Z,19.83
2022-11-17T06:29:38.176Z,19.75
2022-11-17T06:32:08.223Z,21.48
2022-11-17T06:34:35.711Z,21.52
2022-11-17T06:37:03.092Z,22.13
2022-11-17T06:39:30.326Z,19.63
2022-11-17T06:41:57.687Z,20.20
2022-11-17T06:44:24.848Z,21.30
2022-11-17T06:46:52.076Z,21.85
2022-11-17T06:49:19.695Z,21.15
2022-11-17T06:51:46.916Z,19.63
2022-11-17T06:54:15.006Z,20.20
2022-11-17T06:56:43.728Z,23.80
2022-11-17T06:59:10.930Z,22.45
2022-11-17T07:01:38.313Z,17.67
2022-11-17T07:04:05.762Z,19.88
2022-11-17T07:06:36.518Z,19.80
2022-11-17T07:09:03.758Z,18.60
2022-11-17T07:11:31.050Z,18.60
2022-11-17T07:13:58.542Z,16.90
2022-11-17T07:16:25.799Z,16.65
2022-11-17T07:18:53.780Z,15.57
2022-11-17T07:21:22.531Z,16.90
2022-11-17T07:23:49.746Z,17.08
2022-11-17T07:26:16.922Z,14.82
2022-11-17T07:28:44.198Z,17.42
2022-11-17T07:31:11.380Z,16.67
2022-11-17T07:33:38.660Z,14.43
2022-11-17T07:36:06.951Z,12.98
2022-11-17T07:38:35.464Z,12.40
2022-11-17T07:41:03.792Z,12.57
2022-11-17T07:43:31.409Z,13.68
2022-11-17T07:45:58.607Z,15.73
2022-11-17T07:48:25.861Z,13.75
2022-11-17T07:50:53.081Z,11.40
2022-11-17T07:53:20.364Z,15.48
2022-11-17T07:55:47.546Z,13.02
2022-11-17T07:58:14.709Z,15.32
2022-11-17T08:00:41.941Z,14.15
2022-11-17T08:03:10.161Z,11.25
2022-11-17T08:05:43.371Z,13.43
2022-11-17T08:08:13.089Z,13.27
2022-11-17T08:10:40.684Z,14.18
2022-11-17T08:13:08.191Z,16.02
2022-11-17T08:15:36.544Z,11.15
2022-11-17T08:18:04.490Z,16.40
2022-11-17T08:20:31.875Z,13.95
2022-11-17T08:22:59.734Z,13.70
2022-11-17T08:25:27.832Z,13.90
2022-11-17T08:27:57.681Z,14.35
2022-11-17T08:30:28.158Z,14.75
2022-11-17T08:32:55.634Z,13.25
2022-11-17T08:35:24.246Z,15.23
2022-11-17T08:37:51.528Z,15.07
2022-11-17T08:40:18.872Z,13.43
2022-11-17T08:42:46.589Z,20.55
2022-11-17T08:45:14.269Z,15.85
2022-11-17T08:47:41.675Z,16.73
2022-11-17T08:50:09.519Z,14.57
2022-11-17T08:52:36.721Z,13.60
2022-11-17T08:55:05.850Z,14.55
2022-11-17T08:57:33.703Z,14.13
2022-11-17T09:00:01.601Z,12.82
2022-11-17T09:02:29.108Z,12.65
2022-11-17T09:04:56.306Z,14.63
2022-11-17T09:07:23.573Z,15.80
2022-11-17T09:09:50.822Z,19.35
2022-11-17T09:12:18.982Z,15.30
2022-11-17T09:14:46.222Z,14.30
2022-11-17T09:17:13.392Z,17.25
2022-11-17T09:19:40.607Z,15.32
2022-11-17T09:22:08.014Z,14.05
2022-11-17T09:24:35.307Z,17.40
2022-11-17T09:27:05.276Z,15.82
2022-11-17T09:29:32.565Z,16.50
2022-11-17T09:31:59.772Z,16.23
2022-11-17T09:34:27.504Z,16.10
2022-11-17T09:36:54.733Z,18.05
2022-11-17T09:39:21.977Z,16.92
2022-11-17T09:41:51.309Z,18.48
2022-11-17T09:44:24.634Z,16.02
2022-11-17T09:46:58.159Z,15.65
2022-11-17T09:49:25.369Z,16.83
2022-11-17T09:51:53.073Z,17.50
2022-11-17T09:54:38.955Z,20.92
2022-11-17T09:57:07.047Z,15.52
2022-11-17T09:59:34.477Z,16.77
2022-11-17T10:02:01.673Z,15.85
2022-11-17T10:04:30.201Z,16.33
2022-11-17T10:06:58.638Z,20.33
2022-11-17T10:09:37.222Z,19.40
2022-11-17T10:12:25.408Z,16.98
2022-11-17T10:14:52.885Z,17.95
2022-11-17T10:17:20.093Z,18.92
2022-11-17T10:19:47.312Z,16.25
2022-11-17T10:22:33.861Z,20.15
2022-11-17T10:25:01.069Z,15.80
2022-11-17T10:27:28.374Z,16.98
2022-11-17T10:29:59.784Z,17.05
2022-11-17T10:32:27.912Z,19.17
2022-11-17T10:34:55.209Z,17.42
2022-11-17T10:37:24.433Z,19.90
2022-11-17T10:39:51.612Z,19.48
2022-11-17T10:42:18.769Z,20.75
2022-11-17T10:44:51.455Z,20.08
2022-11-17T10:47:48.371Z,20.85
2022-11-17T10:50:23.914Z,19.58
2022-11-17T10:52:52.551Z,22.73
2022-11-17T10:55:31.689Z,19.45
2022-11-17T10:58:05.835Z,21.02
2022-11-17T11:00:37.451Z,20.85
2022-11-17T11:03:04.759Z,22.38
2022-11-17T11:05:32.426Z,20.70
2022-11-17T11:08:20.620Z,20.73
2022-11-17T11:10:50.725Z,19.60
2022-11-17T11:13:21.166Z,21.42
2022-11-17T11:15:48.629Z,21.25
2022-11-17T11:18:17.505Z,20.50
2022-11-17T11:20:44.870Z,19.40
2022-11-17T11:23:18.676Z,19.27
2022-11-17T11:25:50.339Z,23.10
2022-11-17T11:28:23.664Z,18.90
2022-11-17T11:31:02.837Z,20.98
2022-11-17T11:33:30.214Z,21.98
2022-11-17T11:36:15.249Z,19.35
2022-11-17T11:38:48.801Z,21.45
2022-11-17T11:41:29.561Z,21.25
2022-11-17T11:44:03.151Z,19.98
2022-11-17T11:46:39.529Z,18.92
2022-11-17T11:49:27.263Z,19.83
2022-11-17T11:51:55.085Z,20.05
2022-11-17T11:54:25.258Z,20.23
2022-11-17T11:56:53.228Z,22.45
2022-11-17T11:59:30.140Z,20.75
2022-11-17T12:01:57.673Z,20.23
2022-11-17T12:04:25.004Z,18.38
2022-11-17T12:06:56.831Z,18.73
2022-11-17T12:09:24.140Z,19.02
2022-11-17T12:12:01.548Z,21.25
2022-11-17T12:14:33.336Z,18.30
2022-11-17T12:17:17.484Z,19.60
2022-11-17T12:19:51.241Z,18.02
2022-11-17T12:22:38.913Z,16.30
2022-11-17T12:25:06.236Z,16.30
2022-11-17T12:27:37.022Z,18.20
2022-11-17T12:30:06.424Z,15.35
2022-11-17T12:32:47.224Z,15.48
2022-11-17T12:35:28.360Z,15.43
2022-11-17T12:38:15.407Z,14.43
2022-11-17T12:40:44.640Z,18.15
2022-11-17T12:43:18.241Z,17.38
2022-11-17T12:45:54.810Z,13.18
2022-11-17T12:48:33.388Z,13.15
2022-11-17T12:51:04.801Z,14.35
2022-11-17T12:53:38.277Z,13.90
2022-11-17T12:56:15.826Z,14.65
2022-11-17T12:58:46.616Z,13.43
2022-11-17T13:01:20.773Z,12.13
2022-11-17T13:04:00.113Z,12.25
2022-11-17T13:06:35.454Z,14.50
2022-11-17T13:09:09.316Z,13.50
2022-11-17T13:11:36.772Z,12.38
2022-11-17T13:14:11.545Z,11.00
2022-11-17T13:19:26.902Z,12.88
2022-11-17T13:22:14.174Z,13.10
2022-11-17T13:24:42.385Z,11.20
2022-11-17T13:27:22.656Z,12.70
2022-11-17T13:29:50.336Z,13.57
2022-11-17T13:32:23.188Z,12.15
2022-11-17T13:35:01.159Z,12.93
2022-11-17T13:37:29.759Z,11.10
2022-11-17T13:40:13.804Z,10.60
2022-11-17T13:42:41.040Z,12.25
2022-11-17T13:45:08.570Z,12.23
2022-11-17T13:47:39.466Z,12.52
2022-11-17T13:50:25.195Z,11.23
2022-11-17T13:55:20.652Z,10.23
2022-11-17T13:58:06.726Z,12.57
2022-11-17T14:00:34.450Z,9.80
2022-11-17T14:03:03.263Z,11.02
2022-11-17T14:05:33.892Z,12.40
2022-11-17T14:08:22.174Z,11.75
2022-11-17T14:10:49.421Z,11.25
2022-11-17T14:13:19.766Z,11.95
2022-11-17T14:15:53.872Z,13.30
2022-11-17T14:18:24.185Z,15.10
2022-11-17T14:21:04.445Z,16.73
2022-11-17T14:23:31.657Z,12.23
2022-11-17T14:25:58.837Z,13.45
2022-11-17T14:28:26.817Z,11.57
2022-11-17T14:30:55.390Z,14.23
2022-11-17T14:33:23.029Z,14.45
2022-11-17T14:35:57.184Z,12.13
2022-11-17T14:38:24.659Z,10.98
2022-11-17T14:40:53.081Z,14.27
2022-11-17T14:43:21.104Z,11.55
2022-11-17T14:45:48.883Z,13.05
2022-11-17T14:48:19.283Z,12.07
2022-11-17T14:50:47.087Z,12.52
2022-11-17T14:53:14.399Z,12.05
2022-11-17T14:55:41.575Z,11.80
2022-11-17T14:58:10.038Z,13.32
2022-11-17T15:00:37.689Z,10.95
2022-11-17T15:03:05.071Z,13.77
2022-11-17T15:05:32.545Z,16.58
2022-11-17T15:07:59.725Z,12.82
2022-11-17T15:10:27.003Z,13.23
2022-11-17T15:12:54.250Z,13.75
2022-11-17T15:15:21.811Z,14.52
2022-11-17T15:17:49.419Z,14.25
2022-11-17T15:20:17.286Z,14.15
2022-11-17T15:22:44.729Z,15.65
2022-11-17T15:25:12.305Z,15.40
2022-11-17T15:27:39.556Z,17.65
2022-11-17T15:30:07.113Z,17.13
2022-11-17T15:32:34.283Z,18.25
2022-11-17T15:35:01.441Z,19.35
2022-11-17T15:37:28.723Z,17.80
2022-11-17T15:39:56.020Z,18.20
2022-11-17T15:42:23.153Z,18.70
2022-11-17T15:44:50.445Z,21.58
2022-11-17T15:47:17.610Z,25.60
2022-11-17T15:49:46.955Z,18.95
2022-11-17T15:52:14.156Z,27.10
2022-11-17T15:54:41.319Z,22.15
2022-11-17T15:57:08.513Z,23.38
2022-11-17T15:59:35.702Z,22.65
2022-11-17T16:02:08.790Z,22.05
2022-11-17T16:04:36.673Z,26.02
2022-11-17T16:07:04.358Z,18.08
2022-11-17T16:09:31.685Z,17.27
2022-11-17T16:11:58.954Z,23.40
2022-11-17T16:14:26.253Z,26.45
2022-11-17T16:16:53.464Z,29.38
2022-11-17T16:19:20.678Z,21.25
2022-11-17T16:21:48.481Z,20.73
2022-11-17T16:24:15.708Z,24.88
2022-11-17T16:26:44.809Z,23.52
2022-11-17T16:29:12.132Z,23.65
2022-11-17T16:31:39.781Z,21.13
2022-11-17T16:34:08.660Z,23.10
2022-11-17T16:36:38.424Z,19.05
2022-11-17T16:39:07.085Z,19.85
2022-11-17T16:41:35.469Z,18.85
2022-11-17T16:44:03.297Z,20.38
2022-11-17T16:46:31.796Z,20.38
2022-11-17T16:49:03.221Z,21.83
2022-11-17T16:51:30.517Z,19.25
2022-11-17T16:53:58.924Z,19.77
2022-11-17T16:56:26.270Z,21.05
2022-11-17T16:58:54.662Z,22.80
2022-11-17T17:01:24.144Z,20.30
2022-11-17T17:03:55.871Z,21.25
2022-11-17T17:06:23.268Z,21.13
2022-11-17T17:08:54.225Z,23.80
2022-11-17T17:11:21.494Z,19.73
2022-11-17T17:13:48.672Z,23.13
2022-11-17T17:16:17.616Z,21.00
2022-11-17T17:18:44.950Z,21.35
2022-11-17T17:21:16.464Z,20.67
2022-11-17T17:23:45.213Z,22.38
2022-11-17T17:26:18.154Z,24.15
2022-11-17T17:28:46.368Z,20.70
2022-11-17T17:31:20.815Z,21.52
2022-11-17T17:36:17.169Z,21.20
2022-11-17T17:38:45.309Z,20.05
2022-11-17T17:41:15.046Z,20.42
2022-11-17T17:43:43.198Z,21.42
2022-11-17T17:46:15.591Z,21.90
2022-11-17T17:48:44.245Z,24.13
2022-11-17T17:51:12.610Z,21.25
2022-11-17T17:53:39.884Z,20.40
2022-11-17T17:56:14.950Z,22.58
2022-11-17T17:58:42.663Z,20.50
2022-11-17T18:01:21.003Z,22.85
2022-11-17T18:03:49.021Z,22.73
2022-11-17T18:06:17.213Z,20.85
2022-11-17T18:08:44.720Z,20.52
2022-11-17T18:11:19.383Z,22.35
2022-11-17T18:13:47.618Z,21.30
2022-11-17T18:16:16.611Z,22.10
2022-11-17T18:18:45.664Z,21.67
2022-11-17T18:21:14.348Z,24.23
2022-11-17T18:23:41.824Z,22.05
2022-11-17T18:26:09.954Z,19.77
2022-11-17T18:28:37.774Z,22.20
2022-11-17T18:31:05.674Z,22.83
2022-11-17T18:33:32.896Z,22.88
2022-11-17T18:36:09.944Z,19.98
2022-11-17T18:38:37.648Z,22.08
2022-11-17T18:41:05.740Z,24.52
2022-11-17T18:43:33.224Z,22.90
2022-11-17T18:46:07.690Z,22.70
2022-11-17T18:48:35.679Z,23.58
2022-11-17T18:51:20.230Z,24.73
2022-11-17T18:53:48.736Z,24.80
2022-11-17T18:56:17.239Z,22.30
2022-11-17T18:58:45.038Z,23.15
2022-11-17T19:01:14.821Z,22.38
2022-11-17T19:03:43.650Z,24.15
2022-11-17T19:06:11.449Z,22.98
2022-11-17T19:08:38.817Z,22.83
2022-11-17T19:11:06.967Z,23.33
2022-11-17T19:13:35.565Z,24.30
2022-11-17T19:16:19.181Z,25.35
2022-11-17T19:18:47.233Z,25.02
2022-11-17T19:21:15.725Z,29.15
2022-11-17T19:23:49.557Z,22.38
2022-11-17T19:28:45.760Z,24.40
2022-11-17T19:31:15.422Z,25.17
2022-11-17T19:33:42.909Z,25.83
2022-11-17T19:36:11.458Z,25.50
2022-11-17T19:38:39.107Z,27.05
2022-11-17T19:41:07.427Z,26.40
2022-11-17T19:43:37.918Z,26.42
2022-11-17T19:46:08.892Z,23.77
2022-11-17T19:48:36.107Z,24.50
2022-11-17T19:51:12.256Z,25.42
2022-11-17T19:53:42.210Z,24.75
2022-11-17T19:56:09.633Z,24.42
2022-11-17T19:58:37.024Z,23.23
2022-11-17T20:01:11.733Z,24.30
2022-11-17T20:03:39.298Z,23.25
2022-11-17T20:06:06.979Z,23.25
2022-11-17T20:08:34.283Z,23.65
2022-11-17T20:11:09.118Z,23.58
2022-11-17T20:13:37.319Z,25.42
2022-11-17T20:16:11.467Z,21.48
2022-11-17T20:18:39.607Z,26.48
2022-11-17T20:21:07.636Z,22.95
2022-11-17T20:23:35.329Z,24.33
2022-11-17T20:26:09.609Z,21.65
2022-11-17T20:28:37.765Z,22.30
2022-11-17T20:31:09.948Z,24.50
2022-11-17T20:33:38.254Z,23.40
2022-11-17T20:36:06.008Z,22.85
2022-11-17T20:38:33.318Z,23.50
2022-11-17T20:41:01.005Z,24.27
2022-11-17T20:43:28.866Z,23.73
2022-11-17T20:45:56.829Z,28.60
2022-11-17T20:48:24.669Z,29.40
2022-11-17T20:51:08.741Z,26.58
2022-11-17T20:53:35.964Z,25.13
2022-11-17T20:56:04.651Z,25.00
2022-11-17T20:58:32.177Z,26.48
2022-11-17T21:00:59.559Z,23.33
2022-11-17T21:03:27.645Z,23.75
2022-11-17T21:05:58.715Z,24.83
2022-11-17T21:08:27.390Z,24.98
2022-11-17T21:10:55.738Z,25.27
2022-11-17T21:13:23.022Z,21.73
2022-11-17T21:16:02.301Z,23.85
2022-11-17T21:18:29.558Z,23.13
2022-11-17T21:21:00.265Z,20.90
2022-11-17T21:23:28.117Z,20.98
2022-11-17T21:25:55.350Z,23.00
2022-11-17T21:28:22.859Z,19.98
2022-11-17T21:30:50.154Z,21.20
2022-11-17T21:33:17.344Z,21.63
2022-11-17T21:35:44.606Z,19.67
2022-11-17T21:38:11.844Z,25.00
2022-11-17T21:40:39.167Z,22.17
2022-11-17T21:43:06.364Z,24.63
2022-11-17T21:45:34.369Z,22.23
2022-11-17T21:48:01.752Z,22.75
2022-11-17T21:50:29.013Z,22.75
2022-11-17T21:52:56.250Z,23.08
2022-11-17T21:55:23.467Z,23.33
2022-11-17T21:57:51.606Z,21.35
2022-11-17T22:00:19.086Z,23.48
2022-11-17T22:02:46.450Z,24.73
2022-11-17T22:05:13.692Z,22.13
2022-11-17T22:07:40.887Z,21.50
2022-11-17T22:10:08.318Z,20.63
2022-11-17T22:12:35.572Z,20.17
2022-11-17T22:15:06.104Z,24.65
2022-11-17T22:17:37.554Z,23.75
2022-11-17T22:20:05.028Z,20.85
2022-11-17T22:22:32.244Z,20.20
2022-11-17T22:25:16.782Z,19.55
2022-11-17T22:27:46.698Z,23.10
2022-11-17T22:30:15.120Z,20.02
2022-11-17T22:32:45.069Z,21.55
2022-11-17T22:35:12.763Z,21.55
2022-11-17T22:37:39.931Z,20.00
2022-11-17T22:40:07.465Z,18.42
2022-11-17T22:42:34.640Z,23.27
2022-11-17T22:45:02.046Z,23.52
2022-11-17T22:47:29.693Z,22.17
2022-11-17T22:49:56.922Z,20.83
2022-11-17T22:52:24.106Z,21.80
2022-11-17T22:54:51.272Z,20.15
2022-11-17T22:57:18.436Z,20.67
2022-11-17T22:59:46.032Z,19.35
2022-11-17T23:02:13.221Z,20.48
2022-11-17T23:04:40.480Z,20.10
2022-11-17T23:07:07.737Z,20.10
2022-11-17T23:09:35.049Z,19.67
2022-11-17T23:12:02.425Z,21.60
2022-11-17T23:14:29.727Z,20.52
2022-11-17T23:16:56.960Z,20.23
2022-11-17T23:19:24.153Z,19.20
2022-11-17T23:21:51.296Z,19.85
2022-11-17T23:24:18.430Z,20.27
2022-11-17T23:26:45.625Z,20.40
2022-11-17T23:29:12.964Z,21.65
2022-11-17T23:31:40.360Z,23.48
2022-11-17T23:34:09.677Z,22.35
2022-11-17T23:36:36.952Z,21.27
2022-11-17T23:39:04.183Z,24.13
2022-11-17T23:41:31.345Z,26.80
2022-11-17T23:43:58.516Z,25.13
2022-11-17T23:46:26.328Z,29.48
2022-11-17T23:48:53.911Z,29.50
2022-11-17T23:51:25.083Z,28.52
2022-11-17T23:53:52.334Z,27.63
2022-11-17T23:56:22.801Z,30.02
2022-11-17T23:58:50.881Z,30.48
